createdAt,value
2018-03-14T00:01:51.326Z,12.63
2018-03-14T00:04:24.550Z,13.27
2018-03-14T00:06:57.496Z,13.33
2018-03-14T00:09:30.547Z,11.77
2018-03-14T00:12:03.263Z,11.47
2018-03-14T00:14:36.666Z,10.47
2018-03-14T00:17:09.572Z,14.07
2018-03-14T00:19:42.354Z,14.33
2018-03-14T00:22:27.306Z,14.27
2018-03-14T00:25:00.964Z,16.87
2018-03-14T00:27:33.955Z,16.57
2018-03-14T00:30:06.642Z,17.43
2018-03-14T00:32:39.190Z,17.70
2018-03-14T00:35:12.022Z,16.87
2018-03-14T00:37:44.679Z,19.07
2018-03-14T00:40:17.395Z,15.60
2018-03-14T00:42:50.151Z,17.53
2018-03-14T00:45:22.926Z,18.67
2018-03-14T00:47:56.131Z,16.63
2018-03-14T00:50:28.891Z,19.07
2018-03-14T00:53:01.771Z,15.83
2018-03-14T00:55:34.224Z,15.97
2018-03-14T00:58:06.992Z,19.03
2018-03-14T01:00:40.416Z,19.17
2018-03-14T01:03:13.340Z,20.67
2018-03-14T01:05:46.369Z,16.53
2018-03-14T01:08:20.029Z,18.37
2018-03-14T01:10:52.926Z,22.30
2018-03-14T01:13:26.208Z,19.03
2018-03-14T01:15:58.827Z,19.87
2018-03-14T01:18:31.299Z,18.97
2018-03-14T01:21:04.123Z,18.07
2018-03-14T01:23:37.026Z,17.40
2018-03-14T01:26:10.635Z,19.53
2018-03-14T01:28:43.414Z,17.70
2018-03-14T01:31:17.532Z,16.97
2018-03-14T01:33:51.120Z,17.03
2018-03-14T01:36:24.071Z,17.27
2018-03-14T01:38:56.513Z,16.33
2018-03-14T01:41:30.401Z,14.27
2018-03-14T01:44:03.311Z,15.17
2018-03-14T01:46:35.971Z,15.10
2018-03-14T01:49:08.837Z,15.53
2018-03-14T01:51:41.653Z,16.00
2018-03-14T01:54:14.811Z,17.63
2018-03-14T01:56:48.170Z,16.83
2018-03-14T01:59:20.826Z,12.47
2018-03-14T02:01:53.874Z,15.73
2018-03-14T02:04:26.781Z,12.87
2018-03-14T02:07:00.132Z,10.83
2018-03-14T02:09:32.831Z,10.10
2018-03-14T02:12:05.724Z,9.80
2018-03-14T02:14:38.469Z,9.53
2018-03-14T02:17:11.345Z,9.50
2018-03-14T02:19:44.211Z,8.93
2018-03-14T02:22:16.990Z,8.53
2018-03-14T02:24:50.138Z,9.23
2018-03-14T02:27:22.715Z,7.83
2018-03-14T02:29:56.775Z,7.57
2018-03-14T02:32:29.386Z,7.50
2018-03-14T02:35:03.146Z,6.47
2018-03-14T02:37:36.511Z,10.40
2018-03-14T02:40:09.600Z,6.93
2018-03-14T02:42:43.100Z,7.23
2018-03-14T02:45:15.742Z,7.73
2018-03-14T02:47:48.126Z,11.20
2018-03-14T02:50:20.841Z,10.60
2018-03-14T02:52:53.752Z,9.50
2018-03-14T02:55:27.345Z,11.53
2018-03-14T02:58:00.310Z,11.50
2018-03-14T03:00:33.155Z,11.97
2018-03-14T03:03:05.881Z,12.23
2018-03-14T03:05:38.754Z,15.03
2018-03-14T03:08:11.507Z,15.93
2018-03-14T03:10:44.844Z,14.53
2018-03-14T03:13:18.860Z,15.00
2018-03-14T03:15:51.445Z,16.07
2018-03-14T03:18:25.213Z,19.10
2018-03-14T03:20:58.101Z,16.53
2018-03-14T03:23:30.820Z,13.47
2018-03-14T03:26:03.564Z,17.20
2018-03-14T03:28:36.192Z,15.93
2018-03-14T03:31:09.226Z,16.00
2018-03-14T03:33:42.380Z,16.87
2018-03-14T03:36:15.101Z,14.73
2018-03-14T03:38:47.877Z,17.23
2018-03-14T03:41:20.665Z,18.30
2018-03-14T03:43:53.547Z,16.37
2018-03-14T03:46:26.656Z,13.33
2018-03-14T03:48:59.170Z,14.93
2018-03-14T03:51:32.811Z,18.00
2018-03-14T03:54:06.336Z,18.07
2018-03-14T03:56:39.122Z,18.57
2018-03-14T03:59:12.308Z,15.97
2018-03-14T04:01:44.936Z,16.73
2018-03-14T04:04:17.949Z,15.57
2018-03-14T04:06:50.935Z,16.23
2018-03-14T04:09:24.029Z,17.40
2018-03-14T04:11:56.810Z,17.03
2018-03-14T04:14:30.086Z,18.07
2018-03-14T04:17:02.881Z,16.07
2018-03-14T04:19:35.766Z,15.43
2018-03-14T04:22:08.526Z,14.97
2018-03-14T04:24:41.040Z,14.57
2018-03-14T04:27:13.645Z,14.83
2018-03-14T04:29:46.232Z,13.73
2018-03-14T04:32:18.854Z,16.57
2018-03-14T04:34:51.506Z,14.47
2018-03-14T04:37:24.137Z,15.93
2018-03-14T04:39:56.882Z,13.57
2018-03-14T04:42:29.543Z,12.30
2018-03-14T04:45:02.504Z,12.33
2018-03-14T04:47:35.854Z,12.90
2018-03-14T04:50:08.617Z,10.70
2018-03-14T04:52:42.337Z,12.00
2018-03-14T04:55:15.124Z,16.80
2018-03-14T04:57:48.290Z,12.87
2018-03-14T05:00:21.296Z,13.10
2018-03-14T05:02:54.393Z,12.23
2018-03-14T05:05:27.925Z,13.90
2018-03-14T05:08:00.871Z,13.77
2018-03-14T05:10:33.586Z,12.73
2018-03-14T05:13:06.437Z,13.73
2018-03-14T05:15:39.014Z,12.30
2018-03-14T05:18:11.802Z,11.93
2018-03-14T05:20:44.468Z,14.23
2018-03-14T05:23:17.364Z,10.83
2018-03-14T05:25:50.141Z,14.10
2018-03-14T05:28:22.921Z,12.90
2018-03-14T05:30:55.664Z,13.17
2018-03-14T05:33:28.484Z,11.37
2018-03-14T05:36:00.944Z,13.80
2018-03-14T05:38:34.766Z,12.40
2018-03-14T05:41:07.630Z,13.83
2018-03-14T05:43:40.376Z,11.43
2018-03-14T05:46:13.621Z,11.83
2018-03-14T05:48:48.007Z,14.53
2018-03-14T05:51:20.744Z,11.73
2018-03-14T05:53:54.023Z,13.33
2018-03-14T05:56:26.901Z,16.13
2018-03-14T05:58:59.756Z,12.80
2018-03-14T06:01:34.035Z,14.43
2018-03-14T06:04:08.525Z,13.13
2018-03-14T06:06:41.509Z,14.43
2018-03-14T06:09:15.112Z,17.10
2018-03-14T06:11:47.992Z,16.10
2018-03-14T06:14:20.674Z,14.77
2018-03-14T06:16:53.630Z,14.10
2018-03-14T06:19:26.305Z,17.13
2018-03-14T06:22:00.207Z,14.77
2018-03-14T06:24:33.446Z,17.13
2018-03-14T06:27:07.307Z,18.30
2018-03-14T06:29:41.012Z,15.77
2018-03-14T06:32:13.696Z,16.07
2018-03-14T06:34:47.640Z,15.93
2018-03-14T06:37:21.470Z,16.40
2018-03-14T06:39:54.042Z,17.87
2018-03-14T06:42:27.417Z,16.23
2018-03-14T06:45:00.401Z,17.90
2018-03-14T06:47:33.050Z,16.07
2018-03-14T06:50:05.888Z,16.57
2018-03-14T06:52:38.796Z,14.93
2018-03-14T06:55:11.431Z,14.60
2018-03-14T06:57:44.313Z,16.47
2018-03-14T07:00:29.932Z,17.90
2018-03-14T07:03:15.107Z,17.50
2018-03-14T07:06:00.749Z,15.80
2018-03-14T07:08:33.647Z,14.37
2018-03-14T07:11:07.445Z,17.40
2018-03-14T07:13:40.224Z,16.80
2018-03-14T07:16:12.950Z,16.37
2018-03-14T07:18:45.351Z,17.93
2018-03-14T07:21:18.043Z,13.87
2018-03-14T07:23:50.891Z,16.07
2018-03-14T07:26:24.508Z,14.40
2018-03-14T07:28:57.127Z,13.27
2018-03-14T07:31:30.110Z,13.67
2018-03-14T07:34:02.787Z,12.73
2018-03-14T07:36:35.435Z,13.07
2018-03-14T07:39:09.169Z,12.80
2018-03-14T07:41:41.722Z,14.13
2018-03-14T07:44:14.410Z,12.43
2018-03-14T07:46:47.135Z,12.50
2018-03-14T07:49:20.711Z,12.90
2018-03-14T07:51:54.057Z,9.90
2018-03-14T07:54:26.781Z,11.27
2018-03-14T07:56:59.638Z,11.20
2018-03-14T07:59:32.600Z,10.90
2018-03-14T08:02:05.430Z,10.03
2018-03-14T08:04:39.342Z,9.87
2018-03-14T08:07:11.992Z,12.90
2018-03-14T08:09:44.755Z,11.27
2018-03-14T08:12:17.319Z,10.83
2018-03-14T08:14:50.106Z,10.97
2018-03-14T08:17:22.802Z,9.10
2018-03-14T08:19:56.367Z,11.87
2018-03-14T08:22:29.165Z,10.57
2018-03-14T08:25:02.108Z,9.53
2018-03-14T08:27:36.986Z,9.27
2018-03-14T08:30:09.662Z,8.73
2018-03-14T08:32:42.606Z,10.70
2018-03-14T08:35:15.302Z,11.33
2018-03-14T08:37:48.221Z,8.50
2018-03-14T08:40:20.852Z,6.60
2018-03-14T08:42:54.457Z,7.13
2018-03-14T08:45:27.441Z,9.23
2018-03-14T08:48:00.030Z,8.17
2018-03-14T08:50:32.772Z,7.10
2018-03-14T08:53:05.891Z,9.53
2018-03-14T08:55:39.590Z,9.10
2018-03-14T08:58:12.541Z,7.10
2018-03-14T09:00:45.214Z,6.17
2018-03-14T09:03:18.651Z,8.27
2018-03-14T09:05:51.453Z,8.93
2018-03-14T09:08:24.059Z,8.73
2018-03-14T09:10:57.411Z,9.57
2018-03-14T09:13:30.393Z,7.67
2018-03-14T09:16:03.076Z,7.63
2018-03-14T09:18:36.065Z,9.23
2018-03-14T09:21:09.176Z,8.17
2018-03-14T09:23:42.991Z,5.97
2018-03-14T09:26:15.737Z,7.63
2018-03-14T09:28:48.538Z,10.37
2018-03-14T09:31:21.507Z,9.33
2018-03-14T09:33:54.311Z,7.73
2018-03-14T09:36:27.956Z,9.67
2018-03-14T09:39:00.570Z,9.50
2018-03-14T09:41:33.452Z,7.80
2018-03-14T09:44:06.452Z,7.33
2018-03-14T09:46:39.233Z,7.67
2018-03-14T09:49:12.027Z,9.47
2018-03-14T09:51:44.728Z,9.93
2018-03-14T09:54:17.450Z,6.47
2018-03-14T09:56:50.286Z,6.67
2018-03-14T09:59:23.092Z,6.60
2018-03-14T10:01:55.847Z,8.07
2018-03-14T10:04:28.687Z,7.70
2018-03-14T10:07:02.346Z,7.67
2018-03-14T10:09:35.386Z,9.63
2018-03-14T10:12:08.271Z,6.03
2018-03-14T10:14:42.003Z,6.73
2018-03-14T10:17:14.858Z,5.77
2018-03-14T10:19:47.559Z,7.67
2018-03-14T10:22:21.754Z,5.77
2018-03-14T10:24:54.426Z,8.60
2018-03-14T10:27:27.972Z,10.80
2018-03-14T10:30:00.736Z,8.90
2018-03-14T10:32:33.355Z,9.50
2018-03-14T10:35:06.316Z,6.27
2018-03-14T10:37:38.826Z,7.93
2018-03-14T10:40:11.636Z,5.80
2018-03-14T10:42:44.277Z,8.27
2018-03-14T10:45:17.913Z,8.83
2018-03-14T10:47:51.018Z,5.40
2018-03-14T10:50:25.337Z,5.30
2018-03-14T10:52:59.436Z,9.10
2018-03-14T10:55:33.035Z,6.43
2018-03-14T10:58:05.736Z,7.00
2018-03-14T11:00:44.562Z,8.67
2018-03-14T11:03:18.154Z,5.97
2018-03-14T11:05:50.632Z,4.70
2018-03-14T11:08:23.320Z,5.70
2018-03-14T11:10:56.025Z,7.10
2018-03-14T11:13:29.353Z,5.07
2018-03-14T11:16:02.619Z,5.53
2018-03-14T11:18:35.201Z,5.87
2018-03-14T11:21:07.978Z,5.43
2018-03-14T11:23:40.537Z,5.13
2018-03-14T11:26:14.098Z,4.03
2018-03-14T11:28:48.457Z,6.13
2018-03-14T11:31:21.403Z,5.80
2018-03-14T11:33:54.285Z,6.40
2018-03-14T11:36:27.887Z,5.43
2018-03-14T11:39:00.868Z,7.50
2018-03-14T11:41:34.781Z,5.97
2018-03-14T11:44:08.293Z,4.93
2018-03-14T11:46:41.190Z,5.17
2018-03-14T11:49:15.442Z,5.03
2018-03-14T11:51:49.036Z,5.30
2018-03-14T11:54:21.895Z,5.13
2018-03-14T11:56:54.866Z,5.80
2018-03-14T11:59:27.794Z,5.97
2018-03-14T12:02:01.445Z,3.20
2018-03-14T12:04:34.852Z,4.17
2018-03-14T12:07:07.925Z,4.73
2018-03-14T12:09:41.286Z,5.10
2018-03-14T12:12:14.415Z,5.17
2018-03-14T12:14:48.723Z,4.97
2018-03-14T12:17:21.751Z,5.33
2018-03-14T12:19:54.210Z,3.53
2018-03-14T12:22:30.758Z,4.33
2018-03-14T12:25:04.246Z,4.13
2018-03-14T12:27:37.858Z,3.67
2018-03-14T12:30:10.577Z,5.30
2018-03-14T12:32:44.015Z,4.97
2018-03-14T12:35:18.606Z,4.77
2018-03-14T12:37:52.699Z,4.10
2018-03-14T12:40:27.021Z,4.90
2018-03-14T12:42:59.983Z,4.30
2018-03-14T12:45:32.861Z,3.73
2018-03-14T12:48:15.755Z,5.43
2018-03-14T12:50:51.017Z,6.30
2018-03-14T12:53:25.136Z,4.23
2018-03-14T12:56:00.709Z,6.53
2018-03-14T12:58:34.672Z,4.70
2018-03-14T13:01:09.581Z,4.90
2018-03-14T13:03:43.640Z,5.80
2018-03-14T13:06:17.556Z,8.97
2018-03-14T13:08:52.137Z,5.20
2018-03-14T13:11:27.833Z,4.97
2018-03-14T13:14:02.057Z,5.07
2018-03-14T13:16:35.012Z,5.77
2018-03-14T13:19:08.452Z,4.50
2018-03-14T13:21:42.216Z,4.73
2018-03-14T13:24:15.029Z,5.67
2018-03-14T13:26:47.988Z,8.33
2018-03-14T13:29:20.971Z,5.27
2018-03-14T13:31:54.112Z,5.67
2018-03-14T13:34:26.853Z,5.47
2018-03-14T13:36:59.488Z,4.33
2018-03-14T13:39:32.817Z,6.00
2018-03-14T13:42:05.606Z,4.63
2018-03-14T13:44:38.896Z,6.90
2018-03-14T13:47:12.290Z,5.03
2018-03-14T13:49:46.238Z,5.60
2018-03-14T13:52:18.876Z,5.40
2018-03-14T13:54:51.381Z,5.90
2018-03-14T13:57:23.971Z,5.17
2018-03-14T13:59:56.967Z,4.67
2018-03-14T14:02:30.337Z,4.97
2018-03-14T14:05:04.094Z,5.87
2018-03-14T14:07:37.554Z,4.03
2018-03-14T14:10:11.322Z,4.90
2018-03-14T14:12:44.213Z,4.63
2018-03-14T14:15:17.861Z,4.87
2018-03-14T14:17:51.507Z,4.20
2018-03-14T14:20:24.293Z,5.47
2018-03-14T14:22:57.223Z,4.10
2018-03-14T14:25:29.951Z,4.47
2018-03-14T14:28:02.634Z,6.40
2018-03-14T14:30:35.468Z,4.27
2018-03-14T14:33:08.227Z,4.70
2018-03-14T14:35:41.301Z,5.70
2018-03-14T14:38:13.906Z,4.93
2018-03-14T14:40:46.957Z,4.60
2018-03-14T14:43:20.616Z,4.30
2018-03-14T14:45:54.389Z,4.60
2018-03-14T14:48:27.619Z,6.03
2018-03-14T14:51:00.539Z,4.47
2018-03-14T14:53:33.576Z,6.60
2018-03-14T14:56:05.947Z,4.90
2018-03-14T14:58:39.323Z,7.30
2018-03-14T15:01:12.178Z,5.20
2018-03-14T15:03:45.167Z,5.63
2018-03-14T15:06:18.749Z,6.70
2018-03-14T15:08:51.262Z,5.40
2018-03-14T15:11:24.654Z,5.73
2018-03-14T15:13:58.259Z,6.23
2018-03-14T15:16:31.019Z,5.70
2018-03-14T15:19:03.691Z,5.50
2018-03-14T15:21:36.788Z,5.37
2018-03-14T15:24:09.693Z,4.80
2018-03-14T15:26:42.728Z,4.77
2018-03-14T15:29:15.984Z,5.03
2018-03-14T15:31:48.541Z,6.13
2018-03-14T15:34:21.593Z,6.27
2018-03-14T15:36:54.484Z,5.67
2018-03-14T15:39:27.019Z,4.83
2018-03-14T15:42:00.198Z,5.23
2018-03-14T15:44:33.155Z,5.27
2018-03-14T15:47:05.803Z,5.53
2018-03-14T15:49:38.594Z,5.77
2018-03-14T15:52:12.031Z,5.47
2018-03-14T15:54:45.727Z,4.53
2018-03-14T15:57:18.599Z,6.60
2018-03-14T15:59:51.486Z,4.97
2018-03-14T16:02:24.207Z,5.73
2018-03-14T16:04:57.058Z,5.30
2018-03-14T16:07:29.832Z,4.30
2018-03-14T16:10:02.718Z,5.63
2018-03-14T16:12:36.264Z,6.80
2018-03-14T16:15:09.840Z,5.43
2018-03-14T16:17:42.599Z,7.43
2018-03-14T16:20:15.699Z,4.03
2018-03-14T16:22:48.203Z,5.30
2018-03-14T16:25:20.915Z,5.27
2018-03-14T16:27:54.037Z,5.90
2018-03-14T16:30:26.602Z,5.07
2018-03-14T16:32:59.430Z,8.50
2018-03-14T16:35:32.378Z,5.33
2018-03-14T16:38:04.953Z,10.23
2018-03-14T16:40:37.668Z,5.83
2018-03-14T16:43:10.569Z,7.33
2018-03-14T16:45:43.405Z,6.47
2018-03-14T16:48:16.005Z,5.87
2018-03-14T16:50:48.743Z,7.20
2018-03-14T16:53:21.854Z,5.73
2018-03-14T16:55:54.734Z,5.97
2018-03-14T16:58:27.725Z,9.40
2018-03-14T17:01:01.855Z,7.50
2018-03-14T17:03:35.137Z,8.43
2018-03-14T17:06:08.019Z,6.23
2018-03-14T17:08:42.008Z,6.83
2018-03-14T17:11:14.804Z,8.10
2018-03-14T17:13:48.157Z,5.50
2018-03-14T17:16:20.948Z,6.27
2018-03-14T17:18:53.971Z,7.60
2018-03-14T17:21:27.464Z,7.37
2018-03-14T17:24:00.387Z,5.87
2018-03-14T17:26:33.906Z,5.50
2018-03-14T17:29:06.403Z,7.23
2018-03-14T17:31:39.466Z,7.37
2018-03-14T17:34:12.198Z,6.83
2018-03-14T17:36:44.697Z,10.30
2018-03-14T17:39:17.433Z,8.27
2018-03-14T17:41:50.386Z,7.10
2018-03-14T17:44:24.952Z,6.67
2018-03-14T17:46:57.859Z,8.40
2018-03-14T17:49:33.090Z,7.40
2018-03-14T17:52:07.043Z,8.20
2018-03-14T17:54:39.783Z,8.33
2018-03-14T17:57:12.599Z,7.37
2018-03-14T17:59:46.164Z,7.30
2018-03-14T18:02:18.938Z,9.30
2018-03-14T18:04:51.780Z,8.30
2018-03-14T18:07:24.678Z,7.00
2018-03-14T18:09:57.223Z,8.67
2018-03-14T18:12:30.223Z,7.10
2018-03-14T18:15:03.681Z,6.47
2018-03-14T18:17:36.350Z,8.30
2018-03-14T18:20:09.978Z,9.23
2018-03-14T18:22:42.687Z,9.37
2018-03-14T18:25:15.348Z,10.10
2018-03-14T18:27:48.783Z,11.13
2018-03-14T18:30:22.437Z,7.70
2018-03-14T18:32:55.904Z,7.97
2018-03-14T18:35:29.213Z,8.97
2018-03-14T18:38:03.412Z,7.57
2018-03-14T18:40:36.366Z,7.23
2018-03-14T18:43:10.816Z,8.33
2018-03-14T18:45:44.837Z,10.70
2018-03-14T18:48:18.434Z,6.83
2018-03-14T18:50:51.576Z,7.17
2018-03-14T18:53:24.387Z,11.10
2018-03-14T18:55:57.942Z,9.43
2018-03-14T18:58:32.128Z,10.37
2018-03-14T19:01:05.267Z,12.10
2018-03-14T19:03:38.404Z,8.67
2018-03-14T19:06:12.247Z,11.33
2018-03-14T19:08:45.816Z,9.33
2018-03-14T19:11:20.388Z,10.67
2018-03-14T19:13:54.139Z,9.80
2018-03-14T19:16:27.714Z,10.83
2018-03-14T19:19:00.762Z,16.37
2018-03-14T19:21:28.455Z,16.80
2018-03-14T19:23:56.184Z,10.70
2018-03-14T19:26:22.845Z,10.20
2018-03-14T19:28:50.844Z,10.83
2018-03-14T19:31:17.468Z,12.83
2018-03-14T19:33:44.300Z,8.20
2018-03-14T19:36:11.217Z,8.67
2018-03-14T19:38:38.386Z,9.70
2018-03-14T19:41:05.151Z,11.80
2018-03-14T19:43:33.760Z,9.27
2018-03-14T19:46:00.715Z,9.43
2018-03-14T19:48:27.796Z,9.53
2018-03-14T19:50:55.213Z,11.77
2018-03-14T19:53:22.834Z,8.60
2018-03-14T19:55:50.641Z,9.33
2018-03-14T19:58:17.569Z,8.13
2018-03-14T20:00:44.404Z,7.33
2018-03-14T20:03:11.686Z,8.20
2018-03-14T20:05:39.064Z,8.80
2018-03-14T20:08:08.446Z,8.27
2018-03-14T20:10:35.767Z,8.63
2018-03-14T20:13:03.564Z,8.40
2018-03-14T20:15:31.106Z,7.47
2018-03-14T20:18:05.556Z,8.37
2018-03-14T20:20:38.483Z,7.23
2018-03-14T20:23:14.077Z,7.73
2018-03-14T20:25:47.568Z,8.93
2018-03-14T20:28:22.109Z,9.53
2018-03-14T20:30:56.430Z,7.23
2018-03-14T20:33:29.751Z,8.73
2018-03-14T20:36:03.726Z,11.13
2018-03-14T20:38:37.184Z,7.63
2018-03-14T20:41:10.644Z,9.43
2018-03-14T20:43:43.799Z,6.90
2018-03-14T20:46:16.743Z,10.70
2018-03-14T20:48:50.736Z,8.57
2018-03-14T20:51:25.024Z,9.37
2018-03-14T20:53:58.309Z,6.83
2018-03-14T20:56:31.599Z,7.63
2018-03-14T20:59:04.660Z,9.20
2018-03-14T21:01:38.834Z,8.43
2018-03-14T21:04:12.500Z,10.40
2018-03-14T21:06:45.375Z,12.07
2018-03-14T21:09:19.614Z,12.87
2018-03-14T21:11:52.823Z,11.53
2018-03-14T21:14:26.233Z,9.63
2018-03-14T21:16:59.068Z,10.23
2018-03-14T21:19:31.913Z,8.87
2018-03-14T21:22:06.194Z,9.47
2018-03-14T21:24:39.103Z,13.03
2018-03-14T21:27:11.857Z,10.60
2018-03-14T21:29:46.668Z,8.50
2018-03-14T21:32:20.504Z,11.30
2018-03-14T21:34:53.513Z,11.50
2018-03-14T21:37:26.179Z,10.97
2018-03-14T21:39:59.753Z,9.17
2018-03-14T21:42:33.952Z,9.83
2018-03-14T21:45:06.661Z,10.30
2018-03-14T21:47:41.910Z,8.70
2018-03-14T21:50:15.271Z,9.37
2018-03-14T21:52:48.093Z,9.37
2018-03-14T21:55:33.939Z,8.77
2018-03-14T21:58:07.246Z,12.63
2018-03-14T22:00:40.583Z,11.90
2018-03-14T22:03:13.559Z,15.57
2018-03-14T22:05:47.993Z,12.37
2018-03-14T22:08:20.845Z,12.03
2018-03-14T22:10:53.480Z,9.07
2018-03-14T22:13:28.323Z,11.67
2018-03-14T22:16:01.332Z,9.17
2018-03-14T22:18:33.921Z,12.83
2018-03-14T22:21:07.993Z,11.00
2018-03-14T22:23:40.683Z,10.80
2018-03-14T22:26:13.576Z,10.30
2018-03-14T22:28:47.930Z,11.00
2018-03-14T22:31:21.442Z,10.83
2018-03-14T22:33:54.684Z,12.93
2018-03-14T22:36:27.262Z,10.73
2018-03-14T22:39:01.085Z,9.60
2018-03-14T22:41:33.987Z,10.37
2018-03-14T22:44:07.037Z,10.07
2018-03-14T22:46:39.845Z,10.47
2018-03-14T22:49:12.562Z,11.53
2018-03-14T22:51:45.278Z,12.07
2018-03-14T22:54:19.009Z,10.47
2018-03-14T22:56:51.944Z,13.73
2018-03-14T22:59:24.649Z,11.40
2018-03-14T23:01:58.878Z,12.30
2018-03-14T23:04:31.849Z,10.70
2018-03-14T23:07:04.428Z,12.23
2018-03-14T23:09:37.185Z,11.07
2018-03-14T23:12:09.888Z,11.67
2018-03-14T23:14:43.084Z,11.93
2018-03-14T23:17:16.484Z,13.10
2018-03-14T23:19:49.160Z,13.17
2018-03-14T23:22:22.038Z,13.83
2018-03-14T23:24:54.820Z,11.03
2018-03-14T23:27:27.479Z,12.63
2018-03-14T23:30:01.242Z,13.27
2018-03-14T23:32:33.956Z,13.00
2018-03-14T23:35:06.502Z,14.57
2018-03-14T23:37:39.545Z,12.57
2018-03-14T23:40:12.396Z,15.30
2018-03-14T23:42:45.524Z,11.37
2018-03-14T23:45:18.048Z,14.67
2018-03-14T23:47:50.904Z,12.40
2018-03-14T23:50:25.300Z,11.40
2018-03-14T23:52:58.062Z,12.43
2018-03-14T23:55:31.783Z,15.00
2018-03-14T23:58:05.288Z,11.97
